sensor_id;sensor_type;location;lat;lon;timestamp;P1;durP1;ratioP1;P2;durP2;ratioP2
61962;SDS011;47927;42.646;23.096;2022-12-07T00:01:05;11.63;;;3.15;;
61962;SDS011;47927;42.646;23.096;2022-12-07T00:03:32;9.65;;;2.42;;
61962;SDS011;47927;42.646;23.096;2022-12-07T00:05:58;12.02;;;2.95;;
61962;SDS011;47927;42.646;23.096;2022-12-07T00:08:24;6.28;;;3.22;;
61962;SDS011;47927;42.646;23.096;2022-12-07T00:10:49;7.85;;;2.28;;
61962;SDS011;47927;42.646;23.096;2022-12-07T00:13:15;6.82;;;2.53;;
61962;SDS011;47927;42.646;23.096;2022-12-07T00:15:40;5.68;;;2.95;;
61962;SDS011;47927;42.646;23.096;2022-12-07T00:18:06;8.52;;;3.42;;
61962;SDS011;47927;42.646;23.096;2022-12-07T00:20:32;5.95;;;2.30;;
61962;SDS011;47927;42.646;23.096;2022-12-07T00:22:58;9.88;;;3.20;;
61962;SDS011;47927;42.646;23.096;2022-12-07T00:25:24;13.70;;;3.15;;
61962;SDS011;47927;42.646;23.096;2022-12-07T00:27:50;6.35;;;2.88;;
61962;SDS011;47927;42.646;23.096;2022-12-07T00:30:16;5.25;;;2.38;;
61962;SDS011;47927;42.646;23.096;2022-12-07T00:32:42;9.13;;;3.25;;
61962;SDS011;47927;42.646;23.096;2022-12-07T00:35:08;8.00;;;2.17;;
61962;SDS011;47927;42.646;23.096;2022-12-07T00:37:33;6.95;;;3.10;;
61962;SDS011;47927;42.646;23.096;2022-12-07T00:39:59;5.25;;;2.03;;
61962;SDS011;47927;42.646;23.096;2022-12-07T00:42:24;8.75;;;3.10;;
61962;SDS011;47927;42.646;23.096;2022-12-07T00:44:50;8.10;;;2.65;;
61962;SDS011;47927;42.646;23.096;2022-12-07T00:47:15;7.50;;;2.75;;
61962;SDS011;47927;42.646;23.096;2022-12-07T00:49:41;7.93;;;2.72;;
61962;SDS011;47927;42.646;23.096;2022-12-07T00:52:06;7.03;;;3.08;;
61962;SDS011;47927;42.646;23.096;2022-12-07T00:54:32;4.80;;;2.63;;
61962;SDS011;47927;42.646;23.096;2022-12-07T00:56:58;6.78;;;2.63;;
61962;SDS011;47927;42.646;23.096;2022-12-07T00:59:23;6.72;;;2.67;;
61962;SDS011;47927;42.646;23.096;2022-12-07T01:01:49;7.22;;;3.25;;
61962;SDS011;47927;42.646;23.096;2022-12-07T01:04:14;10.63;;;2.60;;
61962;SDS011;47927;42.646;23.096;2022-12-07T01:06:40;8.27;;;2.97;;
61962;SDS011;47927;42.646;23.096;2022-12-07T01:09:06;6.45;;;2.83;;
61962;SDS011;47927;42.646;23.096;2022-12-07T01:11:31;4.97;;;2.33;;
61962;SDS011;47927;42.646;23.096;2022-12-07T01:13:58;9.32;;;2.67;;
61962;SDS011;47927;42.646;23.096;2022-12-07T01:16:25;10.10;;;3.13;;
61962;SDS011;47927;42.646;23.096;2022-12-07T01:18:52;7.85;;;3.10;;
61962;SDS011;47927;42.646;23.096;2022-12-07T01:21:24;9.10;;;3.28;;
61962;SDS011;47927;42.646;23.096;2022-12-07T01:23:54;8.52;;;2.90;;
61962;SDS011;47927;42.646;23.096;2022-12-07T01:26:23;6.30;;;2.47;;
61962;SDS011;47927;42.646;23.096;2022-12-07T01:28:49;7.95;;;2.88;;
61962;SDS011;47927;42.646;23.096;2022-12-07T01:31:16;13.30;;;3.15;;
61962;SDS011;47927;42.646;23.096;2022-12-07T01:33:45;6.32;;;3.03;;
61962;SDS011;47927;42.646;23.096;2022-12-07T01:36:17;11.00;;;3.45;;
61962;SDS011;47927;42.646;23.096;2022-12-07T01:38:46;11.18;;;2.67;;
61962;SDS011;47927;42.646;23.096;2022-12-07T01:41:13;8.95;;;2.70;;
61962;SDS011;47927;42.646;23.096;2022-12-07T01:47:01;8.50;;;3.03;;
61962;SDS011;47927;42.646;23.096;2022-12-07T01:52:06;8.48;;;3.17;;
61962;SDS011;47927;42.646;23.096;2022-12-07T01:54:41;8.90;;;3.10;;
61962;SDS011;47927;42.646;23.096;2022-12-07T01:57:08;7.35;;;3.40;;
61962;SDS011;47927;42.646;23.096;2022-12-07T01:59:35;7.28;;;3.05;;
61962;SDS011;47927;42.646;23.096;2022-12-07T02:02:01;8.35;;;2.40;;
61962;SDS011;47927;42.646;23.096;2022-12-07T02:04:29;4.72;;;2.03;;
61962;SDS011;47927;42.646;23.096;2022-12-07T02:06:55;7.55;;;2.63;;
61962;SDS011;47927;42.646;23.096;2022-12-07T02:09:22;11.70;;;3.00;;
61962;SDS011;47927;42.646;23.096;2022-12-07T02:11:47;5.18;;;2.58;;
61962;SDS011;47927;42.646;23.096;2022-12-07T02:14:13;6.82;;;2.50;;
61962;SDS011;47927;42.646;23.096;2022-12-07T02:30:24;9.13;;;2.42;;
61962;SDS011;47927;42.646;23.096;2022-12-07T02:32:59;11.45;;;2.90;;
61962;SDS011;47927;42.646;23.096;2022-12-07T02:40:50;5.32;;;2.92;;
61962;SDS011;47927;42.646;23.096;2022-12-07T02:43:30;7.25;;;2.83;;
61962;SDS011;47927;42.646;23.096;2022-12-07T02:46:17;11.50;;;2.95;;
61962;SDS011;47927;42.646;23.096;2022-12-07T02:48:47;9.55;;;3.47;;
61962;SDS011;47927;42.646;23.096;2022-12-07T02:51:14;5.78;;;2.63;;
61962;SDS011;47927;42.646;23.096;2022-12-07T02:53:40;6.63;;;3.50;;
61962;SDS011;47927;42.646;23.096;2022-12-07T03:01:57;6.85;;;2.53;;
61962;SDS011;47927;42.646;23.096;2022-12-07T03:08:04;4.43;;;2.40;;
61962;SDS011;47927;42.646;23.096;2022-12-07T03:19:02;7.40;;;2.83;;
61962;SDS011;47927;42.646;23.096;2022-12-07T03:21:39;5.85;;;2.35;;
61962;SDS011;47927;42.646;23.096;2022-12-07T03:24:12;6.93;;;2.40;;
61962;SDS011;47927;42.646;23.096;2022-12-07T03:26:41;9.70;;;2.67;;
61962;SDS011;47927;42.646;23.096;2022-12-07T03:29:14;9.73;;;2.60;;
61962;SDS011;47927;42.646;23.096;2022-12-07T03:31:48;6.53;;;2.75;;
61962;SDS011;47927;42.646;23.096;2022-12-07T03:34:25;5.28;;;2.53;;
61962;SDS011;47927;42.646;23.096;2022-12-07T03:42:12;12.20;;;3.17;;
61962;SDS011;47927;42.646;23.096;2022-12-07T03:44:38;8.18;;;2.97;;
61962;SDS011;47927;42.646;23.096;2022-12-07T03:47:05;7.85;;;3.53;;
61962;SDS011;47927;42.646;23.096;2022-12-07T03:49:45;8.30;;;3.05;;
61962;SDS011;47927;42.646;23.096;2022-12-07T03:57:58;5.90;;;2.53;;
61962;SDS011;47927;42.646;23.096;2022-12-07T04:00:28;7.50;;;3.20;;
61962;SDS011;47927;42.646;23.096;2022-12-07T04:02:54;8.07;;;3.17;;
61962;SDS011;47927;42.646;23.096;2022-12-07T04:05:20;9.00;;;2.70;;
61962;SDS011;47927;42.646;23.096;2022-12-07T04:07:46;7.35;;;3.17;;
61962;SDS011;47927;42.646;23.096;2022-12-07T04:10:12;5.78;;;2.97;;
61962;SDS011;47927;42.646;23.096;2022-12-07T04:12:39;6.40;;;3.20;;
61962;SDS011;47927;42.646;23.096;2022-12-07T04:15:05;5.63;;;2.72;;
61962;SDS011;47927;42.646;23.096;2022-12-07T04:17:31;10.10;;;3.38;;
61962;SDS011;47927;42.646;23.096;2022-12-07T04:19:56;11.68;;;3.90;;
61962;SDS011;47927;42.646;23.096;2022-12-07T04:22:22;6.25;;;3.22;;
61962;SDS011;47927;42.646;23.096;2022-12-07T04:24:48;7.68;;;2.88;;
61962;SDS011;47927;42.646;23.096;2022-12-07T04:27:13;6.90;;;2.50;;
61962;SDS011;47927;42.646;23.096;2022-12-07T04:29:39;9.00;;;4.15;;
61962;SDS011;47927;42.646;23.096;2022-12-07T04:32:04;9.50;;;2.92;;
61962;SDS011;47927;42.646;23.096;2022-12-07T04:34:30;9.98;;;3.22;;
61962;SDS011;47927;42.646;23.096;2022-12-07T04:36:55;9.20;;;2.95;;
61962;SDS011;47927;42.646;23.096;2022-12-07T04:41:52;13.40;;;3.05;;
61962;SDS011;47927;42.646;23.096;2022-12-07T04:44:18;11.82;;;3.20;;
61962;SDS011;47927;42.646;23.096;2022-12-07T04:46:44;9.60;;;3.35;;
61962;SDS011;47927;42.646;23.096;2022-12-07T04:49:11;6.20;;;3.10;;
61962;SDS011;47927;42.646;23.096;2022-12-07T04:51:37;10.20;;;3.53;;
61962;SDS011;47927;42.646;23.096;2022-12-07T04:54:03;11.38;;;4.38;;
61962;SDS011;47927;42.646;23.096;2022-12-07T04:56:29;9.65;;;3.70;;
61962;SDS011;47927;42.646;23.096;2022-12-07T04:58:55;8.52;;;3.60;;
61962;SDS011;47927;42.646;23.096;2022-12-07T05:01:21;11.18;;;3.70;;
61962;SDS011;47927;42.646;23.096;2022-12-07T05:03:48;10.10;;;3.67;;
61962;SDS011;47927;42.646;23.096;2022-12-07T05:06:14;14.73;;;4.20;;
61962;SDS011;47927;42.646;23.096;2022-12-07T05:08:40;6.35;;;3.55;;
61962;SDS011;47927;42.646;23.096;2022-12-07T05:11:06;10.80;;;3.95;;
61962;SDS011;47927;42.646;23.096;2022-12-07T05:13:32;11.95;;;3.63;;
61962;SDS011;47927;42.646;23.096;2022-12-07T05:15:58;9.95;;;3.47;;
61962;SDS011;47927;42.646;23.096;2022-12-07T05:18:24;7.47;;;3.83;;
61962;SDS011;47927;42.646;23.096;2022-12-07T05:20:50;10.95;;;3.80;;
61962;SDS011;47927;42.646;23.096;2022-12-07T05:23:16;7.10;;;3.47;;
61962;SDS011;47927;42.646;23.096;2022-12-07T05:25:42;4.82;;;2.55;;
61962;SDS011;47927;42.646;23.096;2022-12-07T05:28:08;5.20;;;2.38;;
61962;SDS011;47927;42.646;23.096;2022-12-07T05:30:34;7.75;;;3.25;;
61962;SDS011;47927;42.646;23.096;2022-12-07T05:32:59;10.07;;;4.40;;
61962;SDS011;47927;42.646;23.096;2022-12-07T05:35:25;8.95;;;4.70;;
61962;SDS011;47927;42.646;23.096;2022-12-07T05:37:51;6.32;;;3.25;;
61962;SDS011;47927;42.646;23.096;2022-12-07T05:40:16;5.43;;;2.58;;
61962;SDS011;47927;42.646;23.096;2022-12-07T05:42:44;5.72;;;2.67;;
61962;SDS011;47927;42.646;23.096;2022-12-07T05:45:09;5.53;;;3.50;;
61962;SDS011;47927;42.646;23.096;2022-12-07T05:47:35;9.30;;;4.35;;
61962;SDS011;47927;42.646;23.096;2022-12-07T05:50:02;7.60;;;3.50;;
61962;SDS011;47927;42.646;23.096;2022-12-07T05:52:28;6.40;;;3.88;;
61962;SDS011;47927;42.646;23.096;2022-12-07T05:54:54;8.63;;;3.80;;
61962;SDS011;47927;42.646;23.096;2022-12-07T05:57:19;10.55;;;3.60;;
61962;SDS011;47927;42.646;23.096;2022-12-07T05:59:45;7.20;;;3.88;;
61962;SDS011;47927;42.646;23.096;2022-12-07T06:02:11;6.25;;;3.38;;
61962;SDS011;47927;42.646;23.096;2022-12-07T06:04:40;7.45;;;4.00;;
61962;SDS011;47927;42.646;23.096;2022-12-07T06:07:08;7.97;;;4.53;;
61962;SDS011;47927;42.646;23.096;2022-12-07T06:09:35;10.73;;;3.83;;
61962;SDS011;47927;42.646;23.096;2022-12-07T06:12:01;5.10;;;2.72;;
61962;SDS011;47927;42.646;23.096;2022-12-07T06:14:46;9.45;;;3.40;;
61962;SDS011;47927;42.646;23.096;2022-12-07T06:17:12;4.25;;;2.55;;
61962;SDS011;47927;42.646;23.096;2022-12-07T06:19:39;9.85;;;3.83;;
61962;SDS011;47927;42.646;23.096;2022-12-07T06:22:05;5.68;;;3.10;;
61962;SDS011;47927;42.646;23.096;2022-12-07T06:24:32;6.53;;;3.83;;
61962;SDS011;47927;42.646;23.096;2022-12-07T06:26:58;7.07;;;4.05;;
61962;SDS011;47927;42.646;23.096;2022-12-07T06:29:24;5.90;;;3.30;;
61962;SDS011;47927;42.646;23.096;2022-12-07T06:31:49;9.82;;;3.55;;
61962;SDS011;47927;42.646;23.096;2022-12-07T06:34:16;9.13;;;3.72;;
61962;SDS011;47927;42.646;23.096;2022-12-07T06:36:43;6.65;;;3.53;;
61962;SDS011;47927;42.646;23.096;2022-12-07T06:39:09;9.00;;;4.03;;
61962;SDS011;47927;42.646;23.096;2022-12-07T06:41:36;8.30;;;3.80;;
61962;SDS011;47927;42.646;23.096;2022-12-07T06:44:03;9.38;;;3.75;;
61962;SDS011;47927;42.646;23.096;2022-12-07T06:46:32;8.73;;;4.28;;
61962;SDS011;47927;42.646;23.096;2022-12-07T06:48:58;8.65;;;3.13;;
61962;SDS011;47927;42.646;23.096;2022-12-07T06:51:24;14.13;;;4.05;;
61962;SDS011;47927;42.646;23.096;2022-12-07T06:53:50;7.68;;;3.15;;
61962;SDS011;47927;42.646;23.096;2022-12-07T06:56:15;10.02;;;3.15;;
61962;SDS011;47927;42.646;23.096;2022-12-07T06:58:41;11.55;;;4.38;;
61962;SDS011;47927;42.646;23.096;2022-12-07T07:01:10;4.00;;;2.05;;
61962;SDS011;47927;42.646;23.096;2022-12-07T07:03:38;6.93;;;1.92;;
61962;SDS011;47927;42.646;23.096;2022-12-07T07:06:04;9.40;;;2.90;;
61962;SDS011;47927;42.646;23.096;2022-12-07T07:08:31;8.20;;;3.13;;
61962;SDS011;47927;42.646;23.096;2022-12-07T07:10:57;8.27;;;3.42;;
61962;SDS011;47927;42.646;23.096;2022-12-07T07:13:22;6.97;;;3.28;;
61962;SDS011;47927;42.646;23.096;2022-12-07T07:15:48;14.32;;;3.92;;
61962;SDS011;47927;42.646;23.096;2022-12-07T07:18:13;9.68;;;3.60;;
61962;SDS011;47927;42.646;23.096;2022-12-07T07:20:39;9.50;;;2.97;;
61962;SDS011;47927;42.646;23.096;2022-12-07T07:23:05;11.88;;;3.53;;
61962;SDS011;47927;42.646;23.096;2022-12-07T07:25:31;10.50;;;4.28;;
61962;SDS011;47927;42.646;23.096;2022-12-07T07:27:57;8.63;;;3.70;;
61962;SDS011;47927;42.646;23.096;2022-12-07T07:30:23;8.38;;;2.92;;
61962;SDS011;47927;42.646;23.096;2022-12-07T07:32:49;6.13;;;3.38;;
61962;SDS011;47927;42.646;23.096;2022-12-07T07:35:14;8.10;;;3.17;;
61962;SDS011;47927;42.646;23.096;2022-12-07T07:37:59;11.10;;;3.80;;
61962;SDS011;47927;42.646;23.096;2022-12-07T07:40:26;10.05;;;3.90;;
61962;SDS011;47927;42.646;23.096;2022-12-07T07:42:53;13.57;;;3.53;;
61962;SDS011;47927;42.646;23.096;2022-12-07T07:45:38;8.65;;;3.63;;
61962;SDS011;47927;42.646;23.096;2022-12-07T07:48:04;7.13;;;3.08;;
61962;SDS011;47927;42.646;23.096;2022-12-07T07:50:29;10.70;;;3.65;;
61962;SDS011;47927;42.646;23.096;2022-12-07T07:52:56;9.65;;;3.95;;
61962;SDS011;47927;42.646;23.096;2022-12-07T07:55:22;14.05;;;3.42;;
61962;SDS011;47927;42.646;23.096;2022-12-07T07:57:48;7.57;;;3.65;;
61962;SDS011;47927;42.646;23.096;2022-12-07T08:00:14;11.80;;;3.83;;
61962;SDS011;47927;42.646;23.096;2022-12-07T08:02:41;11.18;;;3.95;;
61962;SDS011;47927;42.646;23.096;2022-12-07T08:05:08;8.40;;;3.15;;
61962;SDS011;47927;42.646;23.096;2022-12-07T08:07:34;7.13;;;3.28;;
61962;SDS011;47927;42.646;23.096;2022-12-07T08:09:59;5.90;;;2.60;;
61962;SDS011;47927;42.646;23.096;2022-12-07T08:12:25;5.82;;;3.28;;
61962;SDS011;47927;42.646;23.096;2022-12-07T08:14:50;6.90;;;3.55;;
61962;SDS011;47927;42.646;23.096;2022-12-07T08:17:16;6.18;;;3.10;;
61962;SDS011;47927;42.646;23.096;2022-12-07T08:19:42;6.88;;;3.60;;
61962;SDS011;47927;42.646;23.096;2022-12-07T08:22:07;8.77;;;4.13;;
61962;SDS011;47927;42.646;23.096;2022-12-07T08:24:33;4.93;;;2.78;;
61962;SDS011;47927;42.646;23.096;2022-12-07T08:26:59;10.43;;;3.20;;
61962;SDS011;47927;42.646;23.096;2022-12-07T08:29:25;7.43;;;2.40;;
61962;SDS011;47927;42.646;23.096;2022-12-07T08:31:51;14.90;;;2.78;;
61962;SDS011;47927;42.646;23.096;2022-12-07T08:34:16;9.20;;;2.95;;
61962;SDS011;47927;42.646;23.096;2022-12-07T08:36:42;7.40;;;2.80;;
61962;SDS011;47927;42.646;23.096;2022-12-07T08:39:08;5.65;;;2.88;;
61962;SDS011;47927;42.646;23.096;2022-12-07T08:41:33;6.95;;;2.90;;
61962;SDS011;47927;42.646;23.096;2022-12-07T08:43:59;7.68;;;3.45;;
61962;SDS011;47927;42.646;23.096;2022-12-07T08:46:47;5.57;;;2.88;;
61962;SDS011;47927;42.646;23.096;2022-12-07T08:49:18;7.80;;;3.17;;
61962;SDS011;47927;42.646;23.096;2022-12-07T08:51:48;11.82;;;3.05;;
61962;SDS011;47927;42.646;23.096;2022-12-07T08:54:15;12.02;;;3.15;;
61962;SDS011;47927;42.646;23.096;2022-12-07T08:56:42;7.95;;;3.00;;
61962;SDS011;47927;42.646;23.096;2022-12-07T08:59:09;7.35;;;2.95;;
61962;SDS011;47927;42.646;23.096;2022-12-07T09:01:37;3.40;;;1.60;;
61962;SDS011;47927;42.646;23.096;2022-12-07T09:04:03;5.43;;;2.90;;
61962;SDS011;47927;42.646;23.096;2022-12-07T09:06:28;7.60;;;2.63;;
61962;SDS011;47927;42.646;23.096;2022-12-07T09:08:55;9.10;;;3.10;;
61962;SDS011;47927;42.646;23.096;2022-12-07T09:11:25;10.68;;;3.40;;
61962;SDS011;47927;42.646;23.096;2022-12-07T09:13:50;8.40;;;3.20;;
61962;SDS011;47927;42.646;23.096;2022-12-07T09:16:16;7.43;;;2.92;;
61962;SDS011;47927;42.646;23.096;2022-12-07T09:18:41;6.22;;;2.85;;
61962;SDS011;47927;42.646;23.096;2022-12-07T09:21:07;8.82;;;3.47;;
61962;SDS011;47927;42.646;23.096;2022-12-07T09:23:33;6.78;;;3.30;;
61962;SDS011;47927;42.646;23.096;2022-12-07T09:26:17;8.10;;;3.28;;
61962;SDS011;47927;42.646;23.096;2022-12-07T09:28:42;7.47;;;3.78;;
61962;SDS011;47927;42.646;23.096;2022-12-07T09:31:08;6.60;;;3.10;;
61962;SDS011;47927;42.646;23.096;2022-12-07T09:33:33;7.95;;;2.85;;
61962;SDS011;47927;42.646;23.096;2022-12-07T09:35:59;9.98;;;4.25;;
61962;SDS011;47927;42.646;23.096;2022-12-07T09:38:25;6.03;;;3.53;;
61962;SDS011;47927;42.646;23.096;2022-12-07T09:40:51;8.27;;;3.45;;
61962;SDS011;47927;42.646;23.096;2022-12-07T09:43:20;6.45;;;3.30;;
61962;SDS011;47927;42.646;23.096;2022-12-07T09:45:50;9.15;;;3.42;;
61962;SDS011;47927;42.646;23.096;2022-12-07T09:48:22;7.55;;;4.15;;
61962;SDS011;47927;42.646;23.096;2022-12-07T09:50:54;10.90;;;3.60;;
61962;SDS011;47927;42.646;23.096;2022-12-07T09:53:24;5.85;;;3.05;;
61962;SDS011;47927;42.646;23.096;2022-12-07T09:56:02;7.22;;;3.58;;
61962;SDS011;47927;42.646;23.096;2022-12-07T09:58:28;10.57;;;2.75;;
61962;SDS011;47927;42.646;23.096;2022-12-07T10:01:14;11.00;;;3.50;;
61962;SDS011;47927;42.646;23.096;2022-12-07T10:03:45;8.27;;;3.67;;
61962;SDS011;47927;42.646;23.096;2022-12-07T10:06:15;13.20;;;3.78;;
61962;SDS011;47927;42.646;23.096;2022-12-07T10:08:40;7.63;;;3.30;;
61962;SDS011;47927;42.646;23.096;2022-12-07T10:11:08;13.80;;;3.30;;
61962;SDS011;47927;42.646;23.096;2022-12-07T10:16:39;10.90;;;3.42;;
61962;SDS011;47927;42.646;23.096;2022-12-07T10:19:22;7.47;;;3.05;;
61962;SDS011;47927;42.646;23.096;2022-12-07T10:22:15;9.27;;;3.55;;
61962;SDS011;47927;42.646;23.096;2022-12-07T10:24:42;10.55;;;3.33;;
61962;SDS011;47927;42.646;23.096;2022-12-07T10:29:49;6.75;;;2.80;;
61962;SDS011;47927;42.646;23.096;2022-12-07T10:34:43;8.70;;;2.70;;
61962;SDS011;47927;42.646;23.096;2022-12-07T10:37:19;5.93;;;2.92;;
61962;SDS011;47927;42.646;23.096;2022-12-07T10:40:18;7.40;;;2.67;;
61962;SDS011;47927;42.646;23.096;2022-12-07T10:48:17;5.15;;;2.30;;
61962;SDS011;47927;42.646;23.096;2022-12-07T10:51:08;7.15;;;2.38;;
61962;SDS011;47927;42.646;23.096;2022-12-07T10:53:53;5.57;;;2.40;;
61962;SDS011;47927;42.646;23.096;2022-12-07T11:01:50;6.05;;;3.00;;
61962;SDS011;47927;42.646;23.096;2022-12-07T11:04:34;5.47;;;2.60;;
61962;SDS011;47927;42.646;23.096;2022-12-07T11:10:02;6.88;;;2.70;;
61962;SDS011;47927;42.646;23.096;2022-12-07T11:21:27;6.68;;;2.47;;
61962;SDS011;47927;42.646;23.096;2022-12-07T11:24:10;7.63;;;2.67;;
61962;SDS011;47927;42.646;23.096;2022-12-07T11:32:52;7.63;;;2.15;;
61962;SDS011;47927;42.646;23.096;2022-12-07T11:38:00;4.85;;;2.40;;
61962;SDS011;47927;42.646;23.096;2022-12-07T11:40:34;8.20;;;2.55;;
61962;SDS011;47927;42.646;23.096;2022-12-07T11:48:31;6.20;;;2.20;;
61962;SDS011;47927;42.646;23.096;2022-12-07T11:51:03;6.32;;;2.17;;
61962;SDS011;47927;42.646;23.096;2022-12-07T11:56:13;6.80;;;2.80;;
61962;SDS011;47927;42.646;23.096;2022-12-07T12:09:09;6.30;;;1.95;;
61962;SDS011;47927;42.646;23.096;2022-12-07T12:17:22;5.82;;;2.60;;
61962;SDS011;47927;42.646;23.096;2022-12-07T12:25:45;2.97;;;1.67;;
61962;SDS011;47927;42.646;23.096;2022-12-07T12:33:49;7.75;;;1.88;;
61962;SDS011;47927;42.646;23.096;2022-12-07T12:46:56;8.07;;;3.20;;
61962;SDS011;47927;42.646;23.096;2022-12-07T12:49:41;5.05;;;2.47;;
61962;SDS011;47927;42.646;23.096;2022-12-07T12:57:34;5.45;;;2.10;;
61962;SDS011;47927;42.646;23.096;2022-12-07T13:00:14;3.88;;;2.38;;
61962;SDS011;47927;42.646;23.096;2022-12-07T13:05:20;4.15;;;2.20;;
61962;SDS011;47927;42.646;23.096;2022-12-07T13:07:52;6.68;;;2.30;;
61962;SDS011;47927;42.646;23.096;2022-12-07T13:13:00;4.65;;;2.03;;
61962;SDS011;47927;42.646;23.096;2022-12-07T13:15:46;4.72;;;2.03;;
61962;SDS011;47927;42.646;23.096;2022-12-07T13:23:34;6.13;;;2.22;;
61962;SDS011;47927;42.646;23.096;2022-12-07T13:33:44;4.53;;;2.42;;
61962;SDS011;47927;42.646;23.096;2022-12-07T13:36:22;5.53;;;2.28;;
61962;SDS011;47927;42.646;23.096;2022-12-07T13:38:59;7.82;;;2.13;;
61962;SDS011;47927;42.646;23.096;2022-12-07T13:41:35;6.97;;;2.17;;
61962;SDS011;47927;42.646;23.096;2022-12-07T13:44:14;7.60;;;2.22;;
61962;SDS011;47927;42.646;23.096;2022-12-07T13:46:50;6.57;;;2.47;;
61962;SDS011;47927;42.646;23.096;2022-12-07T13:49:23;3.95;;;1.80;;
61962;SDS011;47927;42.646;23.096;2022-12-07T13:51:51;6.90;;;2.35;;
61962;SDS011;47927;42.646;23.096;2022-12-07T13:54:18;7.65;;;2.85;;
61962;SDS011;47927;42.646;23.096;2022-12-07T13:56:49;5.90;;;2.28;;
61962;SDS011;47927;42.646;23.096;2022-12-07T13:59:23;5.93;;;2.67;;
61962;SDS011;47927;42.646;23.096;2022-12-07T14:02:24;6.65;;;2.78;;
61962;SDS011;47927;42.646;23.096;2022-12-07T14:05:05;10.45;;;2.63;;
61962;SDS011;47927;42.646;23.096;2022-12-07T14:07:32;8.60;;;3.88;;
61962;SDS011;47927;42.646;23.096;2022-12-07T14:10:00;4.90;;;2.00;;
61962;SDS011;47927;42.646;23.096;2022-12-07T14:12:28;13.27;;;2.63;;
61962;SDS011;47927;42.646;23.096;2022-12-07T14:14:55;9.27;;;2.45;;
61962;SDS011;47927;42.646;23.096;2022-12-07T14:17:23;9.02;;;2.80;;
61962;SDS011;47927;42.646;23.096;2022-12-07T14:19:51;11.43;;;2.53;;
61962;SDS011;47927;42.646;23.096;2022-12-07T14:22:34;5.10;;;1.95;;
61962;SDS011;47927;42.646;23.096;2022-12-07T14:27:58;9.38;;;2.45;;
61962;SDS011;47927;42.646;23.096;2022-12-07T14:30:29;9.30;;;2.85;;
61962;SDS011;47927;42.646;23.096;2022-12-07T14:32:57;12.85;;;2.65;;
61962;SDS011;47927;42.646;23.096;2022-12-07T14:35:25;7.20;;;3.13;;
61962;SDS011;47927;42.646;23.096;2022-12-07T14:37:52;7.95;;;3.15;;
61962;SDS011;47927;42.646;23.096;2022-12-07T14:40:19;6.50;;;2.20;;
61962;SDS011;47927;42.646;23.096;2022-12-07T14:42:47;7.93;;;2.87;;
61962;SDS011;47927;42.646;23.096;2022-12-07T14:45:17;6.63;;;3.03;;
61962;SDS011;47927;42.646;23.096;2022-12-07T14:47:47;8.00;;;3.38;;
61962;SDS011;47927;42.646;23.096;2022-12-07T14:50:14;7.70;;;3.40;;
61962;SDS011;47927;42.646;23.096;2022-12-07T14:52:42;9.95;;;3.10;;
61962;SDS011;47927;42.646;23.096;2022-12-07T14:55:22;6.00;;;2.47;;
61962;SDS011;47927;42.646;23.096;2022-12-07T14:57:56;8.77;;;2.67;;
61962;SDS011;47927;42.646;23.096;2022-12-07T15:00:23;7.95;;;3.05;;
61962;SDS011;47927;42.646;23.096;2022-12-07T15:02:51;12.82;;;3.60;;
61962;SDS011;47927;42.646;23.096;2022-12-07T15:05:17;13.27;;;3.10;;
61962;SDS011;47927;42.646;23.096;2022-12-07T15:07:43;5.22;;;2.28;;
61962;SDS011;47927;42.646;23.096;2022-12-07T15:10:15;11.45;;;3.20;;
61962;SDS011;47927;42.646;23.096;2022-12-07T15:12:43;11.73;;;3.25;;
61962;SDS011;47927;42.646;23.096;2022-12-07T15:15:09;5.97;;;2.88;;
61962;SDS011;47927;42.646;23.096;2022-12-07T15:17:35;6.75;;;3.45;;
61962;SDS011;47927;42.646;23.096;2022-12-07T15:20:00;7.25;;;3.00;;
61962;SDS011;47927;42.646;23.096;2022-12-07T15:22:45;5.68;;;3.00;;
61962;SDS011;47927;42.646;23.096;2022-12-07T15:25:13;12.85;;;4.88;;
61962;SDS011;47927;42.646;23.096;2022-12-07T15:27:39;24.42;;;7.70;;
61962;SDS011;47927;42.646;23.096;2022-12-07T15:30:05;14.25;;;5.28;;
61962;SDS011;47927;42.646;23.096;2022-12-07T15:32:31;12.20;;;5.35;;
61962;SDS011;47927;42.646;23.096;2022-12-07T15:34:57;13.63;;;5.00;;
61962;SDS011;47927;42.646;23.096;2022-12-07T15:37:22;12.10;;;4.75;;
61962;SDS011;47927;42.646;23.096;2022-12-07T15:39:48;13.40;;;4.55;;
61962;SDS011;47927;42.646;23.096;2022-12-07T15:42:13;12.43;;;4.53;;
61962;SDS011;47927;42.646;23.096;2022-12-07T15:44:39;11.18;;;4.85;;
61962;SDS011;47927;42.646;23.096;2022-12-07T15:47:23;11.57;;;4.32;;
61962;SDS011;47927;42.646;23.096;2022-12-07T15:49:49;16.75;;;4.97;;
61962;SDS011;47927;42.646;23.096;2022-12-07T15:52:14;12.02;;;5.15;;
61962;SDS011;47927;42.646;23.096;2022-12-07T15:54:41;10.32;;;3.83;;
61962;SDS011;47927;42.646;23.096;2022-12-07T15:57:06;11.38;;;4.40;;
61962;SDS011;47927;42.646;23.096;2022-12-07T15:59:32;14.27;;;4.55;;
61962;SDS011;47927;42.646;23.096;2022-12-07T16:01:57;8.95;;;3.85;;
61962;SDS011;47927;42.646;23.096;2022-12-07T16:04:23;9.07;;;4.43;;
61962;SDS011;47927;42.646;23.096;2022-12-07T16:06:49;9.57;;;4.60;;
61962;SDS011;47927;42.646;23.096;2022-12-07T16:09:15;7.43;;;3.95;;
61962;SDS011;47927;42.646;23.096;2022-12-07T16:11:41;9.65;;;3.90;;
61962;SDS011;47927;42.646;23.096;2022-12-07T16:14:07;10.82;;;4.47;;
61962;SDS011;47927;42.646;23.096;2022-12-07T16:16:32;11.23;;;4.72;;
61962;SDS011;47927;42.646;23.096;2022-12-07T16:18:58;9.85;;;5.25;;
61962;SDS011;47927;42.646;23.096;2022-12-07T16:21:23;10.15;;;4.53;;
61962;SDS011;47927;42.646;23.096;2022-12-07T16:23:49;11.25;;;4.60;;
61962;SDS011;47927;42.646;23.096;2022-12-07T16:26:16;14.27;;;4.97;;
61962;SDS011;47927;42.646;23.096;2022-12-07T16:28:43;9.10;;;3.90;;
61962;SDS011;47927;42.646;23.096;2022-12-07T16:31:10;14.88;;;4.35;;
61962;SDS011;47927;42.646;23.096;2022-12-07T16:33:38;15.50;;;3.90;;
61962;SDS011;47927;42.646;23.096;2022-12-07T16:36:05;12.77;;;4.05;;
61962;SDS011;47927;42.646;23.096;2022-12-07T16:38:32;12.63;;;4.25;;
61962;SDS011;47927;42.646;23.096;2022-12-07T16:40:58;11.18;;;4.10;;
61962;SDS011;47927;42.646;23.096;2022-12-07T16:43:24;12.77;;;4.38;;
61962;SDS011;47927;42.646;23.096;2022-12-07T16:45:49;13.65;;;5.15;;
61962;SDS011;47927;42.646;23.096;2022-12-07T16:48:15;9.85;;;3.97;;
61962;SDS011;47927;42.646;23.096;2022-12-07T16:50:41;12.43;;;4.53;;
61962;SDS011;47927;42.646;23.096;2022-12-07T16:53:08;10.38;;;3.95;;
61962;SDS011;47927;42.646;23.096;2022-12-07T16:55:36;11.30;;;4.13;;
61962;SDS011;47927;42.646;23.096;2022-12-07T16:58:02;14.20;;;4.45;;
61962;SDS011;47927;42.646;23.096;2022-12-07T17:00:28;13.40;;;5.22;;
61962;SDS011;47927;42.646;23.096;2022-12-07T17:02:56;10.20;;;4.30;;
61962;SDS011;47927;42.646;23.096;2022-12-07T17:05:41;8.38;;;4.05;;
61962;SDS011;47927;42.646;23.096;2022-12-07T17:08:09;11.73;;;4.97;;
61962;SDS011;47927;42.646;23.096;2022-12-07T17:10:36;12.40;;;4.95;;
61962;SDS011;47927;42.646;23.096;2022-12-07T17:13:04;10.73;;;4.82;;
61962;SDS011;47927;42.646;23.096;2022-12-07T17:15:57;11.48;;;4.05;;
61962;SDS011;47927;42.646;23.096;2022-12-07T17:18:26;13.73;;;5.38;;
61962;SDS011;47927;42.646;23.096;2022-12-07T17:20:53;9.82;;;4.60;;
61962;SDS011;47927;42.646;23.096;2022-12-07T17:23:18;10.63;;;5.35;;
61962;SDS011;47927;42.646;23.096;2022-12-07T17:25:44;13.32;;;4.32;;
61962;SDS011;47927;42.646;23.096;2022-12-07T17:28:10;11.95;;;5.22;;